Wetterdaten: Woche 23.10.17 - 29.10.17 (KW43)
Datum Zeit Temp. Aussen Temp. o. S. +5cm Feuchte Auss BlattFeu 1 Luftdruck Regen Sonnenschein Regendauer Solar Windben Empfang
23.10.2017 00:00 9,5 C 9,4 C 7,8 C 88 % 0 lf 1015,0 hPa 0,0 l/m 0,00 h 0,00 h 0 W/m 17,7 km/h (3 Bft) 95,91 %
23.10.2017 01:00 9,5 C 9,4 C 8,1 C 88 % 0 lf 1014,9 hPa 0,0 l/m 0,00 h 0,00 h 0 W/m 21,6 km/h (4 Bft) 97,48 %
23.10.2017 02:00 9,6 C 9,4 C 8,3 C 87 % 0 lf 1015,0 hPa 0,0 l/m 0,00 h 0,00 h 0 W/m 19,8 km/h (3 Bft) 95,52 %
23.10.2017 03:00 9,7 C 8,9 C 7,9 C 88 % 7 lf 1015,2 hPa 0,0 l/m 0,00 h 0,07 h 0 W/m 22,1 km/h (4 Bft) 97,55 %
23.10.2017 04:00 9,3 C 9,1 C 7,6 C 91 % 5 lf 1015,3 hPa 0,0 l/m 0,00 h 0,15 h 0 W/m 20,2 km/h (4 Bft) 95,57 %
23.10.2017 05:00 9,4 C 9,4 C 8,2 C 90 % 0 lf 1015,6 hPa 0,0 l/m 0,00 h 0,00 h 0 W/m 19,4 km/h (3 Bft) 94,61 %
23.10.2017 06:00 9,6 C 9,4 C 8,3 C 89 % 0 lf 1016,1 hPa 0,0 l/m 0,00 h 0,00 h 0 W/m 20,8 km/h (4 Bft) 98,01 %
23.10.2017 07:00 9,8 C 9,4 C 8,4 C 88 % 0 lf 1016,0 hPa 0,0 l/m 0,00 h 0,00 h 0 W/m 20,1 km/h (4 Bft) 96,80 %
23.10.2017 08:00 9,9 C 9,9 C 8,9 C 89 % 0 lf 1016,7 hPa 0,0 l/m 0,00 h 0,00 h 10 W/m 19,7 km/h (3 Bft) 93,45 %
23.10.2017 09:00 10,0 C 10,3 C 9,1 C 89 % 0 lf 1016,9 hPa 0,0 l/m 0,07 h 0,00 h 56 W/m 20,1 km/h (4 Bft) 98,55 %
23.10.2017 10:00 10,7 C 14,3 C 10,3 C 90 % 0 lf 1017,1 hPa 0,0 l/m 0,53 h 0,00 h 191 W/m 21,5 km/h (4 Bft) 96,88 %
23.10.2017 11:00 12,1 C 13,6 C 12,0 C 87 % 0 lf 1017,3 hPa 0,0 l/m 0,27 h 0,00 h 140 W/m 21,9 km/h (4 Bft) 94,54 %
23.10.2017 12:00 12,5 C 14,9 C 12,5 C 86 % 0 lf 1017,7 hPa 0,0 l/m 0,30 h 0,00 h 213 W/m 23,1 km/h (4 Bft) 97,97 %
23.10.2017 13:00 13,2 C 14,3 C 12,7 C 85 % 1 lf 1018,0 hPa 0,0 l/m 0,10 h 0,10 h 151 W/m 18,8 km/h (3 Bft) 95,95 %
23.10.2017 14:00 13,0 C 13,9 C 12,9 C 86 % 0 lf 1017,9 hPa 0,0 l/m 0,00 h 0,00 h 129 W/m 21,0 km/h (4 Bft) 96,23 %
23.10.2017 15:00 14,4 C 17,7 C 14,3 C 80 % 0 lf 1018,0 hPa 0,0 l/m 0,73 h 0,00 h 257 W/m 20,5 km/h (4 Bft) 96,44 %
23.10.2017 16:00 14,6 C 16,3 C 13,4 C 78 % 0 lf 1018,4 hPa 0,0 l/m 0,47 h 0,00 h 145 W/m 17,7 km/h (3 Bft) 97,15 %
23.10.2017 17:00 14,0 C 13,5 C 12,0 C 80 % 0 lf 1018,6 hPa 0,0 l/m 0,17 h 0,00 h 41 W/m 12,5 km/h (3 Bft) 95,02 %
23.10.2017 18:00 13,1 C 12,2 C 10,7 C 84 % 0 lf 1019,0 hPa 0,0 l/m 0,13 h 0,00 h 15 W/m 8,7 km/h (2 Bft) 96,68 %
23.10.2017 19:00 12,3 C 11,5 C 10,1 C 88 % 0 lf 1019,6 hPa 0,0 l/m 0,00 h 0,00 h 0 W/m 9,2 km/h (2 Bft) 96,44 %
23.10.2017 20:00 11,8 C 11,2 C 9,5 C 90 % 0 lf 1019,9 hPa 0,0 l/m 0,00 h 0,00 h 0 W/m 5,5 km/h (1 Bft) 97,08 %
23.10.2017 21:00 11,8 C 11,8 C 10,6 C 92 % 0 lf 1020,2 hPa 0,0 l/m 0,00 h 0,00 h 0 W/m 10,3 km/h (2 Bft) 96,01 %
23.10.2017 22:00 12,2 C 12,2 C 11,1 C 93 % 0 lf 1020,4 hPa 0,0 l/m 0,00 h 0,00 h 0 W/m 12,3 km/h (3 Bft) 96,51 %
23.10.2017 23:00 12,3 C 12,2 C 11,1 C 94 % 0 lf 1020,6 hPa 0,0 l/m 0,00 h 0,00 h 0 W/m 11,4 km/h (2 Bft) 96,23 %
24.10.2017 00:00 12,3 C 12,2 C 11,1 C 94 % 0 lf 1020,6 hPa 0,0 l/m 0,00 h 0,00 h 0 W/m 11,0 km/h (2 Bft) 97,13 %
24.10.2017 01:00 12,5 C 12,5 C 11,5 C 93 % 0 lf 1020,5 hPa 0,0 l/m 0,00 h 0,00 h 0 W/m 10,5 km/h (2 Bft) 95,02 %
24.10.2017 02:00 12,7 C 12,8 C 11,7 C 93 % 0 lf 1020,4 hPa 0,0 l/m 0,00 h 0,00 h 0 W/m 11,9 km/h (2 Bft) 96,58 %
24.10.2017 03:00 12,8 C 12,3 C 11,3 C 93 % 3 lf 1020,3 hPa 0,0 l/m 0,00 h 0,00 h 0 W/m 12,1 km/h (2 Bft) 96,01 %
24.10.2017 04:00 12,7 C 11,7 C 11,1 C 95 % 15 lf 1020,2 hPa 0,2 l/m 0,00 h 0,50 h 0 W/m 9,8 km/h (2 Bft) 97,77 %
24.10.2017 05:00 12,6 C 11,7 C 11,1 C 96 % 15 lf 1020,0 hPa 0,4 l/m 0,00 h 0,10 h 0 W/m 11,0 km/h (2 Bft) 93,60 %
24.10.2017 06:00 12,5 C 12,0 C 11,1 C 97 % 15 lf 1020,1 hPa 0,0 l/m 0,00 h 0,00 h 0 W/m 10,8 km/h (2 Bft) 93,47 %
24.10.2017 07:00 12,6 C 12,2 C 11,1 C 97 % 15 lf 1020,0 hPa 0,0 l/m 0,00 h 0,00 h 0 W/m 10,0 km/h (2 Bft) 94,45 %
24.10.2017 08:00 12,8 C 12,3 C 11,6 C 98 % 15 lf 1020,3 hPa 0,0 l/m 0,00 h 0,00 h 10 W/m 12,4 km/h (3 Bft) 93,44 %
24.10.2017 09:00 13,1 C 13,0 C 12,2 C 98 % 12 lf 1020,5 hPa 0,0 l/m 0,03 h 0,00 h 59 W/m 13,5 km/h (3 Bft) 92,81 %
24.10.2017 10:00 13,6 C 13,5 C 12,7 C 98 % 1 lf 1020,5 hPa 0,0 l/m 0,00 h 0,00 h 74 W/m 16,7 km/h (3 Bft) 93,75 %
24.10.2017 11:00 14,1 C 14,4 C 13,4 C 98 % 0 lf 1020,5 hPa 0,0 l/m 0,00 h 0,00 h 104 W/m 15,5 km/h (3 Bft) 94,76 %
24.10.2017 12:00 15,0 C 15,2 C 13,9 C 96 % 0 lf 1020,5 hPa 0,0 l/m 0,00 h 0,00 h 103 W/m 17,8 km/h (3 Bft) 92,63 %
24.10.2017 13:00 15,9 C 16,5 C 14,7 C 92 % 0 lf 1020,1 hPa 0,0 l/m 0,00 h 0,00 h 117 W/m 21,1 km/h (4 Bft) 94,48 %
24.10.2017 14:00 16,1 C 16,4 C 15,0 C 91 % 0 lf 1019,9 hPa 0,0 l/m 0,00 h 0,00 h 84 W/m 20,9 km/h (4 Bft) 93,74 %
24.10.2017 15:00 16,1 C 16,3 C 15,0 C 92 % 0 lf 1019,7 hPa 0,0 l/m 0,00 h 0,00 h 76 W/m 21,2 km/h (4 Bft) 94,03 %
24.10.2017 16:00 15,9 C 15,7 C 14,6 C 94 % 0 lf 1019,6 hPa 0,0 l/m 0,00 h 0,00 h 35 W/m 19,0 km/h (3 Bft) 92,30 %
24.10.2017 17:00 15,7 C 15,3 C 14,0 C 95 % 5 lf 1019,7 hPa 0,0 l/m 0,00 h 0,00 h 18 W/m 17,4 km/h (3 Bft) 93,38 %
24.10.2017 18:00 15,7 C 15,6 C 14,2 C 96 % 0 lf 1019,9 hPa 0,0 l/m 0,00 h 0,00 h 6 W/m 18,4 km/h (3 Bft) 95,95 %
24.10.2017 19:00 15,8 C 15,6 C 14,4 C 96 % 0 lf 1020,0 hPa 0,0 l/m 0,00 h 0,00 h 0 W/m 19,6 km/h (3 Bft) 93,30 %
24.10.2017 20:00 15,9 C 15,6 C 14,4 C 96 % 0 lf 1020,0 hPa 0,0 l/m 0,00 h 0,00 h 0 W/m 18,9 km/h (3 Bft) 92,40 %
24.10.2017 21:00 15,8 C 15,6 C 14,4 C 96 % 0 lf 1020,0 hPa 0,0 l/m 0,00 h 0,00 h 0 W/m 18,5 km/h (3 Bft) 95,66 %
24.10.2017 22:00 15,8 C 15,6 C 14,4 C 96 % 0 lf 1020,0 hPa 0,0 l/m 0,00 h 0,00 h 0 W/m 17,4 km/h (3 Bft) 93,17 %
24.10.2017 23:00 15,8 C 15,6 C 14,0 C 96 % 0 lf 1020,1 hPa 0,0 l/m 0,00 h 0,00 h 0 W/m 16,0 km/h (3 Bft) 92,53 %
25.10.2017 00:00 15,8 C 15,6 C 14,0 C 96 % 1 lf 1019,7 hPa 0,0 l/m 0,00 h 0,00 h 0 W/m 17,2 km/h (3 Bft) 94,87 %
25.10.2017 01:00 15,9 C 15,6 C 14,4 C 96 % 0 lf 1019,6 hPa 0,0 l/m 0,00 h 0,00 h 0 W/m 17,0 km/h (3 Bft) 93,29 %
25.10.2017 02:00 15,9 C 15,6 C 14,4 C 96 % 0 lf 1019,3 hPa 0,0 l/m 0,00 h 0,00 h 0 W/m 16,0 km/h (3 Bft) 93,49 %
25.10.2017 03:00 15,9 C 15,6 C 14,4 C 96 % 0 lf 1019,1 hPa 0,0 l/m 0,00 h 0,00 h 0 W/m 11,9 km/h (2 Bft) 95,36 %
25.10.2017 04:00 15,8 C 15,6 C 14,2 C 96 % 0 lf 1018,7 hPa 0,0 l/m 0,00 h 0,00 h 0 W/m 9,2 km/h (2 Bft) 89,32 %
25.10.2017 05:00 15,7 C 15,6 C 14,2 C 95 % 0 lf 1018,6 hPa 0,0 l/m 0,00 h 0,00 h 0 W/m 16,6 km/h (3 Bft) 95,85 %
25.10.2017 06:00 16,0 C 15,7 C 14,4 C 94 % 0 lf 1018,5 hPa 0,0 l/m 0,00 h 0,00 h 0 W/m 19,1 km/h (3 Bft) 93,16 %
25.10.2017 07:00 15,9 C 15,6 C 14,2 C 93 % 0 lf 1018,3 hPa 0,0 l/m 0,00 h 0,00 h 0 W/m 16,9 km/h (3 Bft) 92,61 %
25.10.2017 08:00 15,5 C 15,1 C 13,7 C 93 % 0 lf 1018,4 hPa 0,0 l/m 0,07 h 0,00 h 21 W/m 17,4 km/h (3 Bft) 94,96 %
25.10.2017 09:00 15,7 C 16,2 C 14,6 C 92 % 0 lf 1018,9 hPa 0,0 l/m 0,37 h 0,00 h 80 W/m 23,8 km/h (4 Bft) 94,61 %
25.10.2017 10:00 16,2 C 17,4 C 15,4 C 89 % 0 lf 1019,2 hPa 0,0 l/m 0,23 h 0,00 h 134 W/m 30,3 km/h (5 Bft) 91,04 %
25.10.2017 11:00 16,8 C 19,4 C 16,2 C 85 % 0 lf 1019,5 hPa 0,0 l/m 0,60 h 0,00 h 232 W/m 27,2 km/h (4 Bft) 96,65 %
25.10.2017 12:00 17,0 C 18,3 C 16,6 C 81 % 0 lf 1019,9 hPa 0,0 l/m 0,27 h 0,00 h 172 W/m 28,9 km/h (5 Bft) 93,26 %
25.10.2017 13:00 16,6 C 16,9 C 15,8 C 83 % 0 lf 1020,2 hPa 0,0 l/m 0,00 h 0,00 h 82 W/m 22,9 km/h (4 Bft) 93,02 %
25.10.2017 14:00 16,5 C 16,7 C 15,8 C 85 % 0 lf 1020,3 hPa 0,0 l/m 0,00 h 0,00 h 76 W/m 18,9 km/h (3 Bft) 94,66 %
25.10.2017 15:00 16,2 C 15,9 C 15,6 C 86 % 0 lf 1020,8 hPa 0,0 l/m 0,00 h 0,00 h 38 W/m 18,5 km/h (3 Bft) 92,44 %
25.10.2017 16:00 15,8 C 15,7 C 14,8 C 88 % 0 lf 1021,0 hPa 0,0 l/m 0,00 h 0,00 h 38 W/m 15,3 km/h (3 Bft) 92,73 %
25.10.2017 17:00 15,3 C 14,3 C 13,4 C 92 % 9 lf 1021,6 hPa 0,2 l/m 0,00 h 0,27 h 18 W/m 13,8 km/h (3 Bft) 94,16 %
25.10.2017 18:00 14,7 C 13,8 C 12,7 C 95 % 15 lf 1021,9 hPa 0,0 l/m 0,00 h 0,10 h 6 W/m 9,3 km/h (2 Bft) 93,89 %
25.10.2017 19:00 14,2 C 13,2 C 12,1 C 96 % 15 lf 1022,4 hPa 0,0 l/m 0,00 h 0,00 h 0 W/m 10,6 km/h (2 Bft) 94,88 %
25.10.2017 20:00 13,8 C 12,8 C 11,7 C 96 % 14 lf 1022,8 hPa 0,0 l/m 0,00 h 0,00 h 0 W/m 8,9 km/h (2 Bft) 92,60 %
25.10.2017 21:00 13,5 C 12,6 C 11,2 C 96 % 14 lf 1023,0 hPa 0,0 l/m 0,00 h 0,00 h 0 W/m 6,6 km/h (2 Bft) 94,48 %
25.10.2017 22:00 12,8 C 11,7 C 9,8 C 96 % 15 lf 1023,4 hPa 0,0 l/m 0,00 h 0,00 h 0 W/m 5,9 km/h (2 Bft) 94,01 %
25.10.2017 23:00 12,5 C 12,0 C 10,6 C 97 % 15 lf 1023,7 hPa 0,0 l/m 0,00 h 0,00 h 0 W/m 7,0 km/h (2 Bft) 95,12 %
26.10.2017 00:00 12,8 C 12,2 C 11,2 C 97 % 15 lf 1023,8 hPa 0,0 l/m 0,00 h 0,00 h 0 W/m 7,5 km/h (2 Bft) 89,11 %
26.10.2017 01:00 12,9 C 12,2 C 11,3 C 98 % 15 lf 1023,9 hPa 0,0 l/m 0,00 h 0,00 h 0 W/m 8,4 km/h (2 Bft) 94,87 %
26.10.2017 02:00 12,9 C 12,2 C 11,1 C 98 % 15 lf 1023,8 hPa 0,0 l/m 0,00 h 0,00 h 0 W/m 6,9 km/h (2 Bft) 93,81 %
26.10.2017 03:00 12,7 C 12,2 C 11,1 C 98 % 15 lf 1023,9 hPa 0,0 l/m 0,00 h 0,00 h 0 W/m 6,4 km/h (2 Bft) 93,52 %
26.10.2017 04:00 12,7 C 12,2 C 11,0 C 98 % 15 lf 1023,6 hPa 0,2 l/m 0,00 h 0,00 h 0 W/m 5,8 km/h (2 Bft) 93,12 %
26.10.2017 05:00 12,7 C 12,2 C 11,2 C 98 % 15 lf 1023,6 hPa 0,0 l/m 0,00 h 0,00 h 0 W/m 5,7 km/h (1 Bft) 93,90 %
26.10.2017 06:00 12,8 C 12,6 C 11,6 C 98 % 15 lf 1023,4 hPa 0,0 l/m 0,00 h 0,00 h 0 W/m 5,9 km/h (2 Bft) 94,16 %
26.10.2017 07:00 13,0 C 12,8 C 11,7 C 99 % 15 lf 1023,2 hPa 0,0 l/m 0,00 h 0,00 h 0 W/m 6,3 km/h (2 Bft) 94,04 %
26.10.2017 08:00 13,1 C 13,0 C 11,8 C 99 % 14 lf 1023,2 hPa 0,0 l/m 0,00 h 0,00 h 12 W/m 6,3 km/h (2 Bft) 92,53 %
26.10.2017 09:00 13,4 C 13,8 C 12,5 C 99 % 1 lf 1023,6 hPa 0,0 l/m 0,00 h 0,00 h 45 W/m 5,4 km/h (1 Bft) 93,97 %
26.10.2017 10:00 14,0 C 16,0 C 13,8 C 99 % 0 lf 1023,6 hPa 0,0 l/m 0,27 h 0,00 h 129 W/m 9,9 km/h (2 Bft) 95,20 %
26.10.2017 11:00 14,8 C 17,0 C 14,5 C 99 % 0 lf 1023,8 hPa 0,0 l/m 0,20 h 0,00 h 148 W/m 13,6 km/h (3 Bft) 92,25 %
26.10.2017 12:00 16,2 C 20,3 C 16,5 C 94 % 0 lf 1023,5 hPa 0,0 l/m 0,73 h 0,00 h 247 W/m 14,7 km/h (3 Bft) 94,20 %
26.10.2017 13:00 17,3 C 20,7 C 17,3 C 87 % 0 lf 1023,3 hPa 0,0 l/m 0,60 h 0,00 h 265 W/m 16,2 km/h (3 Bft) 94,10 %
26.10.2017 14:00 17,8 C 21,2 C 17,0 C 84 % 0 lf 1022,7 hPa 0,0 l/m 0,53 h 0,00 h 266 W/m 18,0 km/h (3 Bft) 93,09 %
26.10.2017 15:00 18,0 C 20,5 C 17,5 C 83 % 0 lf 1022,3 hPa 0,0 l/m 0,60 h 0,00 h 211 W/m 16,4 km/h (3 Bft) 94,80 %
26.10.2017 16:00 17,2 C 16,9 C 15,9 C 85 % 0 lf 1022,3 hPa 0,0 l/m 0,00 h 0,00 h 55 W/m 18,7 km/h (3 Bft) 92,31 %
26.10.2017 17:00 16,0 C 15,1 C 14,1 C 91 % 6 lf 1022,1 hPa 0,2 l/m 0,00 h 0,30 h 18 W/m 13,9 km/h (3 Bft) 94,94 %
26.10.2017 18:00 15,3 C 14,1 C 13,3 C 95 % 15 lf 1021,9 hPa 0,4 l/m 0,00 h 0,27 h 0 W/m 8,0 km/h (2 Bft) 94,48 %
26.10.2017 19:00 14,8 C 13,9 C 13,1 C 96 % 15 lf 1021,8 hPa 1,6 l/m 0,00 h 0,77 h 0 W/m 11,4 km/h (2 Bft) 93,88 %
26.10.2017 20:00 14,3 C 13,4 C 12,8 C 97 % 15 lf 1021,9 hPa 0,0 l/m 0,00 h 0,03 h 0 W/m 7,1 km/h (2 Bft) 94,44 %
26.10.2017 21:00 14,2 C 13,3 C 12,6 C 97 % 15 lf 1021,8 hPa 0,0 l/m 0,00 h 0,00 h 0 W/m 7,6 km/h (2 Bft) 94,52 %
26.10.2017 22:00 14,0 C 13,3 C 12,6 C 98 % 15 lf 1021,9 hPa 0,0 l/m 0,00 h 0,00 h 0 W/m 8,9 km/h (2 Bft) 92,30 %
26.10.2017 23:00 13,5 C 12,5 C 11,8 C 98 % 15 lf 1021,9 hPa 0,0 l/m 0,00 h 0,00 h 0 W/m 8,0 km/h (2 Bft) 96,86 %
27.10.2017 00:00 12,9 C 12,2 C 11,5 C 98 % 15 lf 1021,8 hPa 0,0 l/m 0,00 h 0,00 h 0 W/m 7,4 km/h (2 Bft) 92,97 %
27.10.2017 01:00 12,7 C 12,2 C 11,3 C 98 % 15 lf 1021,7 hPa 0,0 l/m 0,00 h 0,00 h 0 W/m 9,9 km/h (2 Bft) 92,59 %
27.10.2017 02:00 12,4 C 11,7 C 11,1 C 98 % 15 lf 1021,7 hPa 0,0 l/m 0,00 h 0,00 h 0 W/m 10,0 km/h (2 Bft) 95,88 %
27.10.2017 03:00 12,2 C 11,7 C 10,8 C 98 % 15 lf 1021,7 hPa 0,0 l/m 0,00 h 0,00 h 0 W/m 12,2 km/h (2 Bft) 93,26 %
27.10.2017 04:00 12,0 C 11,5 C 10,6 C 98 % 15 lf 1021,5 hPa 0,2 l/m 0,00 h 0,30 h 0 W/m 13,1 km/h (3 Bft) 91,89 %
27.10.2017 05:00 11,8 C 11,1 C 10,6 C 98 % 15 lf 1021,7 hPa 0,0 l/m 0,00 h 0,00 h 0 W/m 13,8 km/h (3 Bft) 94,55 %
27.10.2017 06:00 11,5 C 10,5 C 9,5 C 98 % 15 lf 1022,0 hPa 0,0 l/m 0,00 h 0,00 h 0 W/m 12,2 km/h (2 Bft) 92,69 %
27.10.2017 07:00 10,9 C 10,0 C 9,2 C 98 % 15 lf 1022,7 hPa 0,0 l/m 0,00 h 0,00 h 0 W/m 13,1 km/h (3 Bft) 94,32 %
27.10.2017 08:00 10,5 C 9,7 C 8,8 C 98 % 15 lf 1023,5 hPa 0,0 l/m 0,00 h 0,00 h 13 W/m 15,9 km/h (3 Bft) 94,42 %
27.10.2017 09:00 10,2 C 10,2 C 8,9 C 97 % 5 lf 1024,4 hPa 0,0 l/m 0,53 h 0,00 h 85 W/m 16,0 km/h (3 Bft) 91,55 %
27.10.2017 10:00 11,0 C 17,0 C 9,9 C 96 % 0 lf 1025,5 hPa 0,0 l/m 0,83 h 0,00 h 209 W/m 20,5 km/h (4 Bft) 95,95 %
27.10.2017 11:00 12,4 C 19,6 C 10,2 C 88 % 0 lf 1026,2 hPa 0,0 l/m 0,83 h 0,00 h 321 W/m 21,5 km/h (4 Bft) 94,09 %
27.10.2017 12:00 13,6 C 20,3 C 12,0 C 80 % 0 lf 1027,0 hPa 0,0 l/m 0,77 h 0,00 h 359 W/m 25,5 km/h (4 Bft) 91,19 %
27.10.2017 13:00 14,1 C 18,5 C 13,1 C 77 % 0 lf 1027,2 hPa 0,0 l/m 0,67 h 0,00 h 334 W/m 26,6 km/h (4 Bft) 96,23 %
27.10.2017 14:00 14,5 C 19,7 C 13,7 C 74 % 0 lf 1027,3 hPa 0,0 l/m 0,73 h 0,00 h 318 W/m 23,3 km/h (4 Bft) 93,10 %
27.10.2017 15:00 14,2 C 17,4 C 12,9 C 74 % 0 lf 1027,6 hPa 0,0 l/m 0,50 h 0,00 h 180 W/m 20,5 km/h (4 Bft) 93,45 %
27.10.2017 16:00 13,6 C 15,8 C 12,3 C 78 % 0 lf 1028,0 hPa 0,0 l/m 0,70 h 0,00 h 155 W/m 15,8 km/h (3 Bft) 95,30 %
27.10.2017 17:00 13,8 C 13,7 C 12,0 C 76 % 0 lf 1028,6 hPa 0,0 l/m 0,47 h 0,07 h 59 W/m 16,7 km/h (3 Bft) 91,89 %
27.10.2017 18:00 12,6 C 11,2 C 9,6 C 78 % 0 lf 1028,7 hPa 0,0 l/m 0,03 h 0,00 h 9 W/m 11,8 km/h (2 Bft) 95,57 %
27.10.2017 19:00 11,0 C 8,5 C 7,1 C 81 % 0 lf 1029,0 hPa 0,0 l/m 0,00 h 0,00 h 0 W/m 5,8 km/h (2 Bft) 93,80 %
27.10.2017 20:00 9,8 C 9,2 C 8,2 C 86 % 0 lf 1029,6 hPa 0,0 l/m 0,00 h 0,00 h 0 W/m 8,1 km/h (2 Bft) 93,85 %
27.10.2017 21:00 9,9 C 9,8 C 8,8 C 88 % 0 lf 1029,8 hPa 0,0 l/m 0,00 h 0,00 h 0 W/m 8,2 km/h (2 Bft) 92,03 %
27.10.2017 22:00 9,9 C 9,3 C 8,2 C 88 % 0 lf 1029,6 hPa 0,0 l/m 0,00 h 0,00 h 0 W/m 8,2 km/h (2 Bft) 95,37 %
27.10.2017 23:00 9,5 C 8,7 C 7,7 C 90 % 0 lf 1029,3 hPa 0,0 l/m 0,00 h 0,00 h 0 W/m 9,0 km/h (2 Bft) 94,59 %
28.10.2017 00:00 9,5 C 9,4 C 8,3 C 93 % 0 lf 1028,9 hPa 0,0 l/m 0,00 h 0,00 h 0 W/m 10,6 km/h (2 Bft) 93,29 %
28.10.2017 01:00 9,5 C 9,3 C 8,3 C 93 % 0 lf 1028,4 hPa 0,0 l/m 0,00 h 0,00 h 0 W/m 9,4 km/h (2 Bft) 94,07 %
28.10.2017 02:00 9,4 C 9,3 C 8,3 C 93 % 0 lf 1027,8 hPa 0,0 l/m 0,00 h 0,03 h 0 W/m 12,6 km/h (3 Bft) 92,69 %
28.10.2017 03:00 9,5 C 9,3 C 8,3 C 93 % 0 lf 1027,0 hPa 0,0 l/m 0,00 h 0,00 h 0 W/m 12,7 km/h (3 Bft) 94,80 %
28.10.2017 04:00 9,4 C 9,2 C 8,2 C 93 % 0 lf 1025,9 hPa 0,0 l/m 0,00 h 0,00 h 0 W/m 15,9 km/h (3 Bft) 95,07 %
28.10.2017 05:00 9,1 C 8,7 C 7,6 C 93 % 0 lf 1024,9 hPa 0,0 l/m 0,00 h 0,00 h 0 W/m 17,8 km/h (3 Bft) 92,67 %
28.10.2017 06:00 8,6 C 8,0 C 6,9 C 93 % 0 lf 1023,9 hPa 0,0 l/m 0,00 h 0,00 h 0 W/m 17,9 km/h (3 Bft) 95,72 %
28.10.2017 07:00 8,3 C 8,0 C 7,0 C 94 % 0 lf 1023,0 hPa 0,0 l/m 0,00 h 0,00 h 0 W/m 24,9 km/h (4 Bft) 95,52 %
28.10.2017 08:00 8,5 C 8,4 C 7,3 C 92 % 0 lf 1022,3 hPa 0,0 l/m 0,00 h 0,00 h 12 W/m 24,6 km/h (4 Bft) 92,09 %
28.10.2017 09:00 8,8 C 8,9 C 8,1 C 91 % 0 lf 1022,3 hPa 0,0 l/m 0,00 h 0,00 h 27 W/m 21,9 km/h (4 Bft) 93,38 %
28.10.2017 10:00 9,3 C 9,9 C 8,9 C 89 % 0 lf 1021,9 hPa 0,0 l/m 0,00 h 0,00 h 84 W/m 28,0 km/h (4 Bft) 94,46 %
28.10.2017 11:00 9,8 C 10,5 C 9,4 C 88 % 0 lf 1021,4 hPa 0,0 l/m 0,00 h 0,00 h 92 W/m 23,8 km/h (4 Bft) 92,31 %
28.10.2017 12:00 10,2 C 10,7 C 9,9 C 88 % 0 lf 1020,9 hPa 0,0 l/m 0,00 h 0,00 h 79 W/m 26,2 km/h (4 Bft) 94,59 %
28.10.2017 13:00 10,5 C 10,8 C 10,1 C 87 % 0 lf 1019,9 hPa 0,0 l/m 0,00 h 0,00 h 71 W/m 27,1 km/h (4 Bft) 93,66 %
28.10.2017 14:00 10,9 C 11,6 C 10,6 C 86 % 0 lf 1018,8 hPa 0,0 l/m 0,00 h 0,00 h 101 W/m 29,0 km/h (5 Bft) 91,82 %
28.10.2017 15:00 11,2 C 11,7 C 10,9 C 85 % 0 lf 1017,9 hPa 0,0 l/m 0,00 h 0,00 h 109 W/m 32,8 km/h (5 Bft) 95,87 %
28.10.2017 16:00 11,0 C 11,0 C 10,3 C 86 % 0 lf 1017,1 hPa 0,0 l/m 0,00 h 0,00 h 45 W/m 32,4 km/h (5 Bft) 92,74 %
28.10.2017 17:00 10,7 C 10,4 C 9,5 C 89 % 0 lf 1016,5 hPa 0,0 l/m 0,00 h 0,00 h 15 W/m 30,6 km/h (5 Bft) 92,46 %
28.10.2017 18:00 10,3 C 9,8 C 8,9 C 93 % 4 lf 1015,9 hPa 0,0 l/m 0,00 h 0,00 h 4 W/m 31,8 km/h (5 Bft) 96,31 %
28.10.2017 19:00 10,2 C 9,9 C 8,9 C 95 % 2 lf 1015,0 hPa 0,0 l/m 0,00 h 0,00 h 0 W/m 32,5 km/h (5 Bft) 94,34 %
28.10.2017 20:00 10,7 C 10,3 C 9,4 C 97 % 11 lf 1014,3 hPa 0,0 l/m 0,00 h 0,03 h 0 W/m 32,4 km/h (5 Bft) 91,38 %
28.10.2017 21:00 11,2 C 10,7 C 9,9 C 97 % 15 lf 1013,2 hPa 0,2 l/m 0,00 h 0,77 h 0 W/m 32,2 km/h (5 Bft) 95,65 %
28.10.2017 22:00 11,6 C 11,1 C 10,4 C 98 % 15 lf 1011,9 hPa 0,2 l/m 0,00 h 0,43 h 0 W/m 36,5 km/h (5 Bft) 93,39 %
28.10.2017 23:00 11,8 C 11,4 C 10,6 C 98 % 15 lf 1010,8 hPa 0,6 l/m 0,00 h 0,67 h 0 W/m 34,2 km/h (5 Bft) 92,46 %
29.10.2017 00:00 12,4 C 12,1 C 11,1 C 99 % 15 lf 1009,7 hPa 0,2 l/m 0,00 h 0,43 h 0 W/m 30,9 km/h (5 Bft) 95,18 %
29.10.2017 01:00 12,8 C 12,2 C 11,6 C 99 % 15 lf 1008,6 hPa 0,0 l/m 0,00 h 0,00 h 0 W/m 31,5 km/h (5 Bft) 92,38 %
29.10.2017 02:00 13,1 C 12,3 C 11,7 C 98 % 15 lf 1007,4 hPa 0,8 l/m 0,00 h 1,23 h 0 W/m 37,0 km/h (5 Bft) 94,41 %
29.10.2017 03:00 12,9 C 12,2 C 11,7 C 98 % 15 lf 1006,2 hPa 1,0 l/m 0,00 h 0,87 h 0 W/m 39,6 km/h (6 Bft) 93,02 %
29.10.2017 04:00 12,8 C 12,1 C 11,2 C 98 % 15 lf 1006,3 hPa 1,4 l/m 0,00 h 0,47 h 0 W/m 39,7 km/h (6 Bft) 93,82 %
29.10.2017 05:00 12,2 C 11,4 C 10,4 C 97 % 15 lf 1007,0 hPa 0,4 l/m 0,00 h 0,30 h 0 W/m 44,0 km/h (6 Bft) 96,08 %
29.10.2017 06:00 11,0 C 9,9 C 9,0 C 94 % 15 lf 1007,9 hPa 0,0 l/m 0,00 h 0,13 h 0 W/m 37,4 km/h (5 Bft) 90,69 %
29.10.2017 07:00 10,8 C 9,4 C 8,1 C 85 % 3 lf 1009,3 hPa 0,0 l/m 0,07 h 0,00 h 16 W/m 35,5 km/h (5 Bft) 95,30 %
29.10.2017 08:00 10,5 C 11,0 C 8,5 C 79 % 0 lf 1011,2 hPa 0,0 l/m 0,77 h 0,00 h 93 W/m 29,7 km/h (5 Bft) 95,45 %
29.10.2017 09:00 10,8 C 14,5 C 9,7 C 76 % 0 lf 1012,4 hPa 0,0 l/m 0,83 h 0,00 h 195 W/m 30,5 km/h (5 Bft) 96,58 %
29.10.2017 10:00 11,7 C 18,2 C 10,4 C 73 % 0 lf 1013,1 hPa 0,0 l/m 0,93 h 0,00 h 306 W/m 29,9 km/h (5 Bft) 95,58 %
29.10.2017 11:00 11,9 C 15,4 C 10,1 C 72 % 9 lf 1014,1 hPa 0,0 l/m 0,50 h 0,50 h 263 W/m 33,6 km/h (5 Bft) 97,08 %
29.10.2017 12:00 10,8 C 14,7 C 9,1 C 78 % 10 lf 1014,6 hPa 0,2 l/m 0,40 h 0,43 h 276 W/m 28,3 km/h (4 Bft) 96,69 %
29.10.2017 13:00 10,9 C 12,6 C 9,2 C 76 % 9 lf 1015,2 hPa 0,0 l/m 0,33 h 0,33 h 197 W/m 31,1 km/h (5 Bft) 96,37 %
29.10.2017 14:00 10,6 C 13,5 C 9,8 C 78 % 0 lf 1015,8 hPa 0,0 l/m 0,47 h 0,00 h 179 W/m 26,4 km/h (4 Bft) 97,71 %
29.10.2017 15:00 10,8 C 13,4 C 9,4 C 77 % 0 lf 1016,1 hPa 0,0 l/m 0,93 h 0,00 h 154 W/m 21,7 km/h (4 Bft) 96,68 %
29.10.2017 16:00 10,4 C 10,1 C 8,7 C 74 % 0 lf 1016,7 hPa 0,0 l/m 0,50 h 0,00 h 42 W/m 22,2 km/h (4 Bft) 95,58 %
29.10.2017 17:00 9,5 C 8,4 C 6,8 C 79 % 10 lf 1017,6 hPa 0,0 l/m 0,00 h 0,13 h 6 W/m 13,6 km/h (3 Bft) 97,50 %
29.10.2017 18:00 8,2 C 6,1 C 4,5 C 82 % 10 lf 1018,6 hPa 0,0 l/m 0,00 h 0,00 h 0 W/m 8,8 km/h (2 Bft) 97,50 %
29.10.2017 19:00 7,3 C 6,6 C 5,3 C 86 % 1 lf 1019,4 hPa 0,0 l/m 0,00 h 0,00 h 0 W/m 13,0 km/h (3 Bft) 94,38 %
29.10.2017 20:00 6,9 C 5,9 C 4,6 C 88 % 1 lf 1019,8 hPa 0,0 l/m 0,00 h 0,00 h 0 W/m 12,4 km/h (3 Bft) 97,88 %
29.10.2017 21:00 6,5 C 5,7 C 4,5 C 89 % 1 lf 1020,4 hPa 0,0 l/m 0,00 h 0,00 h 0 W/m 13,9 km/h (3 Bft) 96,93 %
29.10.2017 22:00 6,5 C 6,0 C 4,9 C 90 % 1 lf 1020,9 hPa 0,0 l/m 0,00 h 0,00 h 0 W/m 12,3 km/h (3 Bft) 96,91 %
29.10.2017 23:00 6,2 C 5,1 C 3,9 C 90 % 1 lf 1021,0 hPa 0,0 l/m 0,00 h 0,00 h 0 W/m 11,6 km/h (2 Bft) 94,85 %
Min-Datum _ 29.10.17 29.10.17 29.10.17 29.10.17 23.10.17 29.10.17 - - - - 23.10.17 25.10.17
_ Min-Zeit 23:42 23:06 23:32 11:20 00:00 03:28 - - - - 20:42 04:05
Minimum _ 6,0 C 5,0 C 3,3 C 69 % 0 lf 1006,1 hPa - - - - 0,0 km/h (0 Bft) 4,39 %
Max-Datum _ 26.10.17 26.10.17 26.10.17 24.10.17 23.10.17 27.10.17 26.10.17 23.10.17 23.10.17 23.10.17 29.10.17 23.10.17
_ Max-Zeit 15:46 13:54 15:14 09:38 03:34 21:36 19:20 18:10 04:05 12:40 05:28 00:58
Maximum _ 18,2 C 24,4 C 18,3 C 99 % 15 lf 1030,0 hPa 1,6 l/m 0,07 h 0,08 h 606 W/m 62,8 km/h
NW (8 Bft)
100,00 %
Durchschnitt _ 12,6 C 12,8 C 11,2 C 91 % 5 lf 1020,1 hPa #8,4 l/m #19:04 h #9:51 h 115 W/m 17,8 km/h (3 Bft) 94,47 %
© 2017 W. Hausmann